Titan — ZCED2 — position and weather

sailwx.info

Track history (hours):
 
Tides and Currents Weather Stations Pressure Air Temp Water Temp Dewpoint Dewpoint Depression Visibility Wind Speed Wind Dir Waves Ship Positions

Titan

Last reported at 2014-Aug-31 04:33 UTC. Time now 2014-Aug-31 04:37 UTC.
Position N 41°22' E 002°11'.

Length 80 m; draft 3.6 m.

Type: Pleasure craft. MMSI: 310598000.

Date/timePositionNaut miles runAvg speedWind from/ knotsBaromVisibWave heightAir tempDewpointWater temp
2014-Aug-31 04:33N 41°22' E 002°11'0 0.0
2014-Aug-31 02:15N 41°22' E 002°11'0 0.0
2014-Aug-31 00:21N 41°22' E 002°11'0 0.0
2014-Aug-30 22:27N 41°22' E 002°11'0 0.0
2014-Aug-30 21:33N 41°22' E 002°11'0 0.0
2014-Aug-30 20:21N 41°22' E 002°11'0 0.0
2014-Aug-29 11:21N 41°22' E 002°11'0 0.0
2014-Aug-29 10:33N 41°22' E 002°11'0 0.0
2014-Aug-29 05:27N 41°22' E 002°11'0 0.0
2014-Aug-29 03:21N 41°22' E 002°11'0 0.0
2014-Aug-29 01:21N 41°22' E 002°11'0 0.0
2014-Aug-28 23:15N 41°22' E 002°11'0 0.0
2014-Aug-28 17:21N 41°22' E 002°11'0 0.0
2014-Aug-28 16:27N 41°22' E 002°11'0 0.0
2014-Aug-28 15:15N 41°22' E 002°11'2 0.6
2014-Aug-28 12:22N 41°21' E 002°12'7 8.5
2014-Aug-28 11:29N 41°23' E 002°22'1513.1
2014-Aug-28 10:19N 41°30' E 002°40'2713.2
2014-Aug-28 08:18N 41°41' E 003°12'1114.5
2014-Aug-28 07:33N 41°46' E 003°25'1712.5
2014-Aug-28 06:10N 41°54' E 003°46'1013.3
2014-Aug-28 05:23N 41°58' E 003°59'1513.4
2014-Aug-28 04:17N 42°05' E 004°17'1213.6
2014-Aug-28 03:22N 42°10' E 004°32'3713.2
2014-Aug-28 00:32N 42°27' E 005°17'1212.5
2014-Aug-27 23:33N 42°32' E 005°32'1513.0
2014-Aug-27 22:24N 42°38' E 005°51'1113.4
2014-Aug-27 21:33N 42°43' E 006°05'1413.6
2014-Aug-27 20:33N 42°49' E 006°22'1616.3
2014-Aug-27 19:34N 42°58' E 006°40'1110.6
2014-Aug-27 18:32N 43°07' E 006°48'1313.3
2014-Aug-27 17:33N 43°18' E 006°59'1212.2
2014-Aug-27 16:33N 43°27' E 007°09'8 8.2
2014-Aug-27 15:34N 43°34' E 007°15'9 6.4
2014-Aug-27 14:08N 43°42' E 007°22'0 0.8
2014-Aug-27 13:33N 43°42' E 007°21'1 0.2
2014-Aug-27 09:24N 43°42' E 007°21'0 0.0
2014-Aug-27 06:30N 43°42' E 007°21'0 0.0
2014-Aug-27 05:24N 43°42' E 007°21'0 0.0
2014-Aug-27 03:24N 43°42' E 007°21'0 0.0
2014-Aug-27 02:24N 43°42' E 007°21'0 0.0
2014-Aug-27 01:24N 43°42' E 007°21'0 0.0
2014-Aug-27 00:30N 43°42' E 007°21'0 0.0
2014-Aug-26 23:12N 43°42' E 007°21'0 0.0
2014-Aug-26 21:24N 43°42' E 007°21'0 0.0
2014-Aug-26 19:24N 43°42' E 007°21'0 0.0
2014-Aug-26 18:24N 43°42' E 007°21'0 0.0
2014-Aug-26 17:24N 43°42' E 007°21'0 0.0
2014-Aug-26 16:30N 43°42' E 007°21'0 0.0
2014-Aug-26 15:24N 43°42' E 007°21'0 0.0
2014-Aug-26 14:24N 43°42' E 007°21'0 0.0
2014-Aug-26 13:30N 43°42' E 007°21'0 0.0
2014-Aug-26 12:06N 43°42' E 007°21'0 0.0
2014-Aug-26 10:24N 43°42' E 007°21'0 0.0
2014-Aug-26 08:24N 43°42' E 007°21'0 0.0
2014-Aug-26 06:24N 43°42' E 007°21'0 0.0
2014-Aug-26 05:30N 43°42' E 007°21'0 0.0
2014-Aug-26 04:24N 43°42' E 007°21'0 0.0
2014-Aug-26 02:18N 43°42' E 007°21'0 0.0
2014-Aug-26 00:24N 43°42' E 007°21'0 0.0
2014-Aug-25 23:24N 43°42' E 007°21'0 0.0
2014-Aug-25 18:06N 43°42' E 007°21'1 1.8
2014-Aug-25 17:33N 43°42' E 007°21'0 0.1
2014-Aug-25 16:08N 43°43' E 007°21'0 0.0
2014-Aug-25 15:26N 43°43' E 007°21'5 5.7
2014-Aug-25 14:33N 43°38' E 007°17'5 5.4
2014-Aug-25 13:33N 43°39' E 007°10'1 1.2
2014-Aug-25 12:33N 43°38' E 007°10'1211.6
2014-Aug-25 11:31N 43°28' E 007°01'1212.6
2014-Aug-25 10:33N 43°21' E 006°47'9 8.6
2014-Aug-25 09:33N 43°17' E 006°37'0 0.0
2014-Aug-25 08:33N 43°17' E 006°37'0 0.0
2014-Aug-25 07:24N 43°17' E 006°37'0 0.0
2014-Aug-25 04:18N 43°17' E 006°37'0 0.0
2014-Aug-25 01:30N 43°17' E 006°37'0 0.0
2014-Aug-25 00:18N 43°17' E 006°37'0 0.0
2014-Aug-24 23:18N 43°17' E 006°37'0 0.0
2014-Aug-24 22:06N 43°17' E 006°37'0 0.0
2014-Aug-24 21:33N 43°17' E 006°37'0 0.0
2014-Aug-24 17:33N 43°17' E 006°37'0 0.0
2014-Aug-24 16:24N 43°17' E 006°37'0 0.0
2014-Aug-24 15:27N 43°17' E 006°37'0 0.0
2014-Aug-24 14:30N 43°17' E 006°37'0 0.0
2014-Aug-24 13:33N 43°17' E 006°37'0 0.0
2014-Aug-24 12:09N 43°17' E 006°37'0 0.0
2014-Aug-24 10:33N 43°17' E 006°37'0 0.0
2014-Aug-24 09:30N 43°17' E 006°37'0 0.0
2014-Aug-24 07:30N 43°17' E 006°37'0 0.0
2014-Aug-24 06:33N 43°17' E 006°37'0 0.0
2014-Aug-24 05:06N 43°17' E 006°37'0 0.0
2014-Aug-24 04:09N 43°17' E 006°37'0 0.0
2014-Aug-24 02:06N 43°17' E 006°37'0 0.0
2014-Aug-24 00:09N 43°17' E 006°37'0 0.0
2014-Aug-23 23:27N 43°17' E 006°37'0 0.0
2014-Aug-23 22:27N 43°17' E 006°37'0 0.0
2014-Aug-23 21:30N 43°17' E 006°37'0 0.0
2014-Aug-23 02:33N 43°17' E 006°37'0 0.0
2014-Aug-23 01:27N 43°17' E 006°37'0 0.0
2014-Aug-22 22:27N 43°17' E 006°37'0 0.0
2014-Aug-22 21:12N 43°17' E 006°37'0 0.0
2014-Aug-22 19:24N 43°17' E 006°37'0 0.0
2014-Aug-22 18:30N 43°17' E 006°37'0 0.0
2014-Aug-22 17:27N 43°17' E 006°37'0 0.0
2014-Aug-22 16:30N 43°17' E 006°37'0 0.0
2014-Aug-22 15:33N 43°17' E 006°37'0 0.0
2014-Aug-22 14:27N 43°17' E 006°37'0 0.0
2014-Aug-22 13:21N 43°17' E 006°37'0 0.0
2014-Aug-22 12:24N 43°17' E 006°37'0 0.0
2014-Aug-22 11:30N 43°17' E 006°37'0 0.0
2014-Aug-22 10:33N 43°17' E 006°37'0 0.0
2014-Aug-22 09:33N 43°17' E 006°37'0 0.0
2014-Aug-22 08:33N 43°17' E 006°37'0 0.0
2014-Aug-22 07:21N 43°17' E 006°37'0 0.0
2014-Aug-22 05:27N 43°17' E 006°37'0 0.0
2014-Aug-22 03:06N 43°17' E 006°37'0 0.0
2014-Aug-22 01:24N 43°17' E 006°37'2 2.4
2014-Aug-22 00:32N 43°17' E 006°39'1312.9
2014-Aug-21 23:33N 43°23' E 006°55'1413.6
2014-Aug-21 22:33N 43°29' E 007°12'7712.7
2014-Aug-21 16:32N 44°00' E 008°49'1212.5
2014-Aug-21 15:34N 43°60' E 009°06'1212.3
2014-Aug-21 14:34N 44°00' E 009°23'1212.0
2014-Aug-21 13:34N 44°00' E 009°40'9 9.2
2014-Aug-21 12:33N 44°04' E 009°51'1 1.0
2014-Aug-21 11:31N 44°05' E 009°52'0 0.0
2014-Aug-21 10:31N 44°05' E 009°52'0 0.0
2014-Aug-21 09:28N 44°05' E 009°52'0 0.0
2014-Aug-21 08:31N 44°05' E 009°52'0 0.0
2014-Aug-21 07:31N 44°05' E 009°52'0 0.0
2014-Aug-21 06:31N 44°05' E 009°52'0 0.0
2014-Aug-21 05:31N 44°05' E 009°52'  
Track history (hours):
 
Tides and Currents Weather Stations Pressure Air Temp Water Temp Dewpoint Dewpoint Depression Visibility Wind Speed Wind Dir Waves Ship Positions

Titan

Last reported at 2014-Aug-31 04:33 UTC. Time now 2014-Aug-31 04:37 UTC.
Position N 41°22' E 002°11'.

Length 80 m; draft 3.6 m.

Type: Pleasure craft. MMSI: 310598000.

Date/timePositionNaut miles runAvg speedWind from/ knotsBaromVisibWave heightAir tempDewpointWater temp
2014-Aug-31 04:33N 41°22' E 002°11'0 0.0
2014-Aug-31 02:15N 41°22' E 002°11'0 0.0
2014-Aug-31 00:21N 41°22' E 002°11'0 0.0
2014-Aug-30 22:27N 41°22' E 002°11'0 0.0
2014-Aug-30 21:33N 41°22' E 002°11'0 0.0
2014-Aug-30 20:21N 41°22' E 002°11'0 0.0
2014-Aug-29 11:21N 41°22' E 002°11'0 0.0
2014-Aug-29 10:33N 41°22' E 002°11'0 0.0
2014-Aug-29 05:27N 41°22' E 002°11'0 0.0
2014-Aug-29 03:21N 41°22' E 002°11'0 0.0
2014-Aug-29 01:21N 41°22' E 002°11'0 0.0
2014-Aug-28 23:15N 41°22' E 002°11'0 0.0
2014-Aug-28 17:21N 41°22' E 002°11'0 0.0
2014-Aug-28 16:27N 41°22' E 002°11'0 0.0
2014-Aug-28 15:15N 41°22' E 002°11'2 0.6
2014-Aug-28 12:22N 41°21' E 002°12'7 8.5
2014-Aug-28 11:29N 41°23' E 002°22'1513.1
2014-Aug-28 10:19N 41°30' E 002°40'2713.2
2014-Aug-28 08:18N 41°41' E 003°12'1114.5
2014-Aug-28 07:33N 41°46' E 003°25'1712.5
2014-Aug-28 06:10N 41°54' E 003°46'1013.3
2014-Aug-28 05:23N 41°58' E 003°59'1513.4
2014-Aug-28 04:17N 42°05' E 004°17'1213.6
2014-Aug-28 03:22N 42°10' E 004°32'3713.2
2014-Aug-28 00:32N 42°27' E 005°17'1212.5
2014-Aug-27 23:33N 42°32' E 005°32'1513.0
2014-Aug-27 22:24N 42°38' E 005°51'1113.4
2014-Aug-27 21:33N 42°43' E 006°05'1413.6
2014-Aug-27 20:33N 42°49' E 006°22'1616.3
2014-Aug-27 19:34N 42°58' E 006°40'1110.6
2014-Aug-27 18:32N 43°07' E 006°48'1313.3
2014-Aug-27 17:33N 43°18' E 006°59'1212.2
2014-Aug-27 16:33N 43°27' E 007°09'8 8.2
2014-Aug-27 15:34N 43°34' E 007°15'9 6.4
2014-Aug-27 14:08N 43°42' E 007°22'0 0.8
2014-Aug-27 13:33N 43°42' E 007°21'1 0.2
2014-Aug-27 09:24N 43°42' E 007°21'0 0.0
2014-Aug-27 06:30N 43°42' E 007°21'0 0.0
2014-Aug-27 05:24N 43°42' E 007°21'0 0.0
2014-Aug-27 03:24N 43°42' E 007°21'0 0.0
2014-Aug-27 02:24N 43°42' E 007°21'0 0.0
2014-Aug-27 01:24N 43°42' E 007°21'0 0.0
2014-Aug-27 00:30N 43°42' E 007°21'0 0.0
2014-Aug-26 23:12N 43°42' E 007°21'0 0.0
2014-Aug-26 21:24N 43°42' E 007°21'0 0.0
2014-Aug-26 19:24N 43°42' E 007°21'0 0.0
2014-Aug-26 18:24N 43°42' E 007°21'0 0.0
2014-Aug-26 17:24N 43°42' E 007°21'0 0.0
2014-Aug-26 16:30N 43°42' E 007°21'0 0.0
2014-Aug-26 15:24N 43°42' E 007°21'0 0.0
2014-Aug-26 14:24N 43°42' E 007°21'0 0.0
2014-Aug-26 13:30N 43°42' E 007°21'0 0.0
2014-Aug-26 12:06N 43°42' E 007°21'0 0.0
2014-Aug-26 10:24N 43°42' E 007°21'0 0.0
2014-Aug-26 08:24N 43°42' E 007°21'0 0.0
2014-Aug-26 06:24N 43°42' E 007°21'0 0.0
2014-Aug-26 05:30N 43°42' E 007°21'0 0.0
2014-Aug-26 04:24N 43°42' E 007°21'0 0.0
2014-Aug-26 02:18N 43°42' E 007°21'0 0.0
2014-Aug-26 00:24N 43°42' E 007°21'0 0.0
2014-Aug-25 23:24N 43°42' E 007°21'0 0.0
2014-Aug-25 18:06N 43°42' E 007°21'1 1.8
2014-Aug-25 17:33N 43°42' E 007°21'0 0.1
2014-Aug-25 16:08N 43°43' E 007°21'0 0.0
2014-Aug-25 15:26N 43°43' E 007°21'5 5.7
2014-Aug-25 14:33N 43°38' E 007°17'5 5.4
2014-Aug-25 13:33N 43°39' E 007°10'1 1.2
2014-Aug-25 12:33N 43°38' E 007°10'1211.6
2014-Aug-25 11:31N 43°28' E 007°01'1212.6
2014-Aug-25 10:33N 43°21' E 006°47'9 8.6
2014-Aug-25 09:33N 43°17' E 006°37'0 0.0
2014-Aug-25 08:33N 43°17' E 006°37'0 0.0
2014-Aug-25 07:24N 43°17' E 006°37'0 0.0
2014-Aug-25 04:18N 43°17' E 006°37'0 0.0
2014-Aug-25 01:30N 43°17' E 006°37'0 0.0
2014-Aug-25 00:18N 43°17' E 006°37'0 0.0
2014-Aug-24 23:18N 43°17' E 006°37'0 0.0
2014-Aug-24 22:06N 43°17' E 006°37'0 0.0
2014-Aug-24 21:33N 43°17' E 006°37'0 0.0
2014-Aug-24 17:33N 43°17' E 006°37'0 0.0
2014-Aug-24 16:24N 43°17' E 006°37'0 0.0
2014-Aug-24 15:27N 43°17' E 006°37'0 0.0
2014-Aug-24 14:30N 43°17' E 006°37'0 0.0
2014-Aug-24 13:33N 43°17' E 006°37'0 0.0
2014-Aug-24 12:09N 43°17' E 006°37'0 0.0
2014-Aug-24 10:33N 43°17' E 006°37'0 0.0
2014-Aug-24 09:30N 43°17' E 006°37'0 0.0
2014-Aug-24 07:30N 43°17' E 006°37'0 0.0
2014-Aug-24 06:33N 43°17' E 006°37'0 0.0
2014-Aug-24 05:06N 43°17' E 006°37'0 0.0
2014-Aug-24 04:09N 43°17' E 006°37'0 0.0
2014-Aug-24 02:06N 43°17' E 006°37'0 0.0
2014-Aug-24 00:09N 43°17' E 006°37'0 0.0
2014-Aug-23 23:27N 43°17' E 006°37'0 0.0
2014-Aug-23 22:27N 43°17' E 006°37'0 0.0
2014-Aug-23 21:30N 43°17' E 006°37'0 0.0
2014-Aug-23 02:33N 43°17' E 006°37'0 0.0
2014-Aug-23 01:27N 43°17' E 006°37'0 0.0
2014-Aug-22 22:27N 43°17' E 006°37'0 0.0
2014-Aug-22 21:12N 43°17' E 006°37'0 0.0
2014-Aug-22 19:24N 43°17' E 006°37'0 0.0
2014-Aug-22 18:30N 43°17' E 006°37'0 0.0
2014-Aug-22 17:27N 43°17' E 006°37'0 0.0
2014-Aug-22 16:30N 43°17' E 006°37'0 0.0
2014-Aug-22 15:33N 43°17' E 006°37'0 0.0
2014-Aug-22 14:27N 43°17' E 006°37'0 0.0
2014-Aug-22 13:21N 43°17' E 006°37'0 0.0
2014-Aug-22 12:24N 43°17' E 006°37'0 0.0
2014-Aug-22 11:30N 43°17' E 006°37'0 0.0
2014-Aug-22 10:33N 43°17' E 006°37'0 0.0
2014-Aug-22 09:33N 43°17' E 006°37'0 0.0
2014-Aug-22 08:33N 43°17' E 006°37'0 0.0
2014-Aug-22 07:21N 43°17' E 006°37'0 0.0
2014-Aug-22 05:27N 43°17' E 006°37'0 0.0
2014-Aug-22 03:06N 43°17' E 006°37'0 0.0
2014-Aug-22 01:24N 43°17' E 006°37'2 2.4
2014-Aug-22 00:32N 43°17' E 006°39'1312.9
2014-Aug-21 23:33N 43°23' E 006°55'1413.6
2014-Aug-21 22:33N 43°29' E 007°12'7712.7
2014-Aug-21 16:32N 44°00' E 008°49'1212.5
2014-Aug-21 15:34N 43°60' E 009°06'1212.3
2014-Aug-21 14:34N 44°00' E 009°23'1212.0
2014-Aug-21 13:34N 44°00' E 009°40'9 9.2
2014-Aug-21 12:33N 44°04' E 009°51'1 1.0
2014-Aug-21 11:31N 44°05' E 009°52'0 0.0
2014-Aug-21 10:31N 44°05' E 009°52'0 0.0
2014-Aug-21 09:28N 44°05' E 009°52'0 0.0
2014-Aug-21 08:31N 44°05' E 009°52'0 0.0
2014-Aug-21 07:31N 44°05' E 009°52'0 0.0
2014-Aug-21 06:31N 44°05' E 009°52'0 0.0
2014-Aug-21 05:31N 44°05' E 009°52'  

Dump ship's entire track history